Terminal Aerodrome Forecast
Issued by NWS

Current Version | Previous Version | Text Only | Print | Product List | Glossary On
Versions: 1 2 3 4 5 6 7 8 9 10 11 12 13
000
FTUS42 KGSP 311121
TAFAND
TAF
KAND 311121Z 3112/0112 00000KT P6SM SCT120
     FM311400 10004KT P6SM SCT060 BKN120
     FM312200 26008KT P6SM SCT050 BKN070
     FM010200 29012KT P6SM VCSH BKN060
     FM010400 33010KT P6SM -RA BKN040=

USA.gov is the U.S. government's official web portal to all federal, state and local government web resources and services.